sensor_id;sensor_type;location;lat;lon;timestamp;P1;durP1;ratioP1;P2;durP2;ratioP2
37971;SDS011;23794;48.234;8.344;2023-06-22T00:00:10;8.82;;;6.25;;
37971;SDS011;23794;48.234;8.344;2023-06-22T00:02:38;8.43;;;6.43;;
37971;SDS011;23794;48.234;8.344;2023-06-22T00:05:05;11.23;;;6.05;;
37971;SDS011;23794;48.234;8.344;2023-06-22T00:07:32;8.25;;;6.53;;
37971;SDS011;23794;48.234;8.344;2023-06-22T00:09:58;8.40;;;5.63;;
37971;SDS011;23794;48.234;8.344;2023-06-22T00:12:25;9.82;;;6.22;;
37971;SDS011;23794;48.234;8.344;2023-06-22T00:14:52;9.55;;;6.90;;
37971;SDS011;23794;48.234;8.344;2023-06-22T00:17:18;10.90;;;6.13;;
37971;SDS011;23794;48.234;8.344;2023-06-22T00:19:46;9.13;;;6.43;;
37971;SDS011;23794;48.234;8.344;2023-06-22T00:22:13;8.68;;;6.10;;
37971;SDS011;23794;48.234;8.344;2023-06-22T00:24:40;8.90;;;6.30;;
37971;SDS011;23794;48.234;8.344;2023-06-22T00:27:07;9.40;;;6.30;;
37971;SDS011;23794;48.234;8.344;2023-06-22T00:29:34;10.60;;;7.38;;
37971;SDS011;23794;48.234;8.344;2023-06-22T00:32:01;9.13;;;6.05;;
37971;SDS011;23794;48.234;8.344;2023-06-22T00:34:27;9.85;;;6.68;;
37971;SDS011;23794;48.234;8.344;2023-06-22T00:36:54;13.57;;;7.40;;
37971;SDS011;23794;48.234;8.344;2023-06-22T00:39:23;8.70;;;5.78;;
37971;SDS011;23794;48.234;8.344;2023-06-22T00:41:52;9.38;;;6.05;;
37971;SDS011;23794;48.234;8.344;2023-06-22T00:44:19;7.82;;;6.10;;
37971;SDS011;23794;48.234;8.344;2023-06-22T00:46:45;14.10;;;7.00;;
37971;SDS011;23794;48.234;8.344;2023-06-22T00:49:12;10.35;;;6.40;;
37971;SDS011;23794;48.234;8.344;2023-06-22T00:51:40;8.43;;;6.55;;
37971;SDS011;23794;48.234;8.344;2023-06-22T00:54:14;14.90;;;7.97;;
37971;SDS011;23794;48.234;8.344;2023-06-22T00:56:41;8.90;;;7.05;;
37971;SDS011;23794;48.234;8.344;2023-06-22T00:59:08;12.55;;;7.50;;
37971;SDS011;23794;48.234;8.344;2023-06-22T01:01:38;12.25;;;7.55;;
37971;SDS011;23794;48.234;8.344;2023-06-22T01:04:07;8.70;;;6.95;;
37971;SDS011;23794;48.234;8.344;2023-06-22T01:06:38;9.20;;;6.72;;
37971;SDS011;23794;48.234;8.344;2023-06-22T01:09:13;9.93;;;6.20;;
37971;SDS011;23794;48.234;8.344;2023-06-22T01:11:47;11.80;;;6.95;;
37971;SDS011;23794;48.234;8.344;2023-06-22T01:14:23;9.43;;;6.68;;
37971;SDS011;23794;48.234;8.344;2023-06-22T01:16:55;7.97;;;5.80;;
37971;SDS011;23794;48.234;8.344;2023-06-22T01:22:17;7.95;;;5.97;;
37971;SDS011;23794;48.234;8.344;2023-06-22T01:30:28;10.43;;;7.18;;
37971;SDS011;23794;48.234;8.344;2023-06-22T01:32:57;8.52;;;6.63;;
37971;SDS011;23794;48.234;8.344;2023-06-22T01:35:24;11.27;;;7.32;;
37971;SDS011;23794;48.234;8.344;2023-06-22T01:37:51;11.70;;;7.55;;
37971;SDS011;23794;48.234;8.344;2023-06-22T01:40:19;9.52;;;7.70;;
37971;SDS011;23794;48.234;8.344;2023-06-22T01:42:46;9.50;;;6.88;;
37971;SDS011;23794;48.234;8.344;2023-06-22T01:45:14;8.65;;;7.15;;
37971;SDS011;23794;48.234;8.344;2023-06-22T01:47:41;8.55;;;6.72;;
37971;SDS011;23794;48.234;8.344;2023-06-22T01:50:08;9.93;;;7.38;;
37971;SDS011;23794;48.234;8.344;2023-06-22T01:52:35;8.18;;;7.07;;
37971;SDS011;23794;48.234;8.344;2023-06-22T01:55:02;10.30;;;6.45;;
37971;SDS011;23794;48.234;8.344;2023-06-22T01:57:30;9.63;;;8.15;;
37971;SDS011;23794;48.234;8.344;2023-06-22T02:00:05;11.50;;;7.20;;
37971;SDS011;23794;48.234;8.344;2023-06-22T02:03:27;11.05;;;8.98;;
37971;SDS011;23794;48.234;8.344;2023-06-22T02:06:04;9.73;;;6.70;;
37971;SDS011;23794;48.234;8.344;2023-06-22T02:08:48;9.18;;;6.90;;
37971;SDS011;23794;48.234;8.344;2023-06-22T02:11:20;7.35;;;6.35;;
37971;SDS011;23794;48.234;8.344;2023-06-22T02:13:49;13.13;;;8.77;;
37971;SDS011;23794;48.234;8.344;2023-06-22T02:16:16;10.93;;;7.82;;
37971;SDS011;23794;48.234;8.344;2023-06-22T02:18:47;8.75;;;6.85;;
37971;SDS011;23794;48.234;8.344;2023-06-22T02:21:20;12.55;;;7.50;;
37971;SDS011;23794;48.234;8.344;2023-06-22T02:23:47;10.05;;;6.97;;
37971;SDS011;23794;48.234;8.344;2023-06-22T02:26:15;12.93;;;9.30;;
37971;SDS011;23794;48.234;8.344;2023-06-22T02:28:43;11.15;;;7.05;;
37971;SDS011;23794;48.234;8.344;2023-06-22T02:31:10;12.75;;;7.30;;
37971;SDS011;23794;48.234;8.344;2023-06-22T02:33:37;9.13;;;6.38;;
37971;SDS011;23794;48.234;8.344;2023-06-22T02:36:04;11.00;;;7.57;;
37971;SDS011;23794;48.234;8.344;2023-06-22T02:38:31;11.40;;;6.97;;
37971;SDS011;23794;48.234;8.344;2023-06-22T02:41:00;9.88;;;7.82;;
37971;SDS011;23794;48.234;8.344;2023-06-22T02:43:27;9.43;;;7.70;;
37971;SDS011;23794;48.234;8.344;2023-06-22T02:45:53;11.85;;;8.52;;
37971;SDS011;23794;48.234;8.344;2023-06-22T02:48:20;10.10;;;7.53;;
37971;SDS011;23794;48.234;8.344;2023-06-22T02:50:47;9.02;;;7.25;;
37971;SDS011;23794;48.234;8.344;2023-06-22T02:53:14;12.00;;;8.40;;
37971;SDS011;23794;48.234;8.344;2023-06-22T02:55:44;11.30;;;7.20;;
37971;SDS011;23794;48.234;8.344;2023-06-22T02:58:11;10.13;;;8.35;;
37971;SDS011;23794;48.234;8.344;2023-06-22T03:00:38;10.27;;;7.72;;
37971;SDS011;23794;48.234;8.344;2023-06-22T03:03:05;9.75;;;7.95;;
37971;SDS011;23794;48.234;8.344;2023-06-22T03:05:32;9.07;;;8.05;;
37971;SDS011;23794;48.234;8.344;2023-06-22T03:08:01;11.40;;;7.85;;
37971;SDS011;23794;48.234;8.344;2023-06-22T03:10:31;8.68;;;7.00;;
37971;SDS011;23794;48.234;8.344;2023-06-22T03:12:58;9.90;;;7.53;;
37971;SDS011;23794;48.234;8.344;2023-06-22T03:15:25;14.45;;;7.70;;
37971;SDS011;23794;48.234;8.344;2023-06-22T03:17:52;11.63;;;8.63;;
37971;SDS011;23794;48.234;8.344;2023-06-22T03:20:21;10.73;;;7.45;;
37971;SDS011;23794;48.234;8.344;2023-06-22T03:22:48;11.95;;;8.00;;
37971;SDS011;23794;48.234;8.344;2023-06-22T03:25:15;10.45;;;7.10;;
37971;SDS011;23794;48.234;8.344;2023-06-22T03:27:44;10.00;;;7.10;;
37971;SDS011;23794;48.234;8.344;2023-06-22T03:30:11;8.63;;;7.20;;
37971;SDS011;23794;48.234;8.344;2023-06-22T03:32:38;11.40;;;9.07;;
37971;SDS011;23794;48.234;8.344;2023-06-22T03:35:05;11.65;;;9.10;;
37971;SDS011;23794;48.234;8.344;2023-06-22T03:37:35;14.65;;;8.85;;
37971;SDS011;23794;48.234;8.344;2023-06-22T03:40:02;10.40;;;8.85;;
37971;SDS011;23794;48.234;8.344;2023-06-22T03:42:33;11.40;;;9.38;;
37971;SDS011;23794;48.234;8.344;2023-06-22T03:45:02;10.98;;;8.98;;
37971;SDS011;23794;48.234;8.344;2023-06-22T03:47:29;11.73;;;9.38;;
37971;SDS011;23794;48.234;8.344;2023-06-22T03:49:57;11.13;;;8.15;;
37971;SDS011;23794;48.234;8.344;2023-06-22T03:52:24;15.43;;;9.25;;
37971;SDS011;23794;48.234;8.344;2023-06-22T03:54:51;10.88;;;8.43;;
37971;SDS011;23794;48.234;8.344;2023-06-22T03:57:18;11.77;;;8.68;;
37971;SDS011;23794;48.234;8.344;2023-06-22T03:59:44;11.20;;;8.95;;
37971;SDS011;23794;48.234;8.344;2023-06-22T04:02:11;11.00;;;7.82;;
37971;SDS011;23794;48.234;8.344;2023-06-22T04:04:38;10.60;;;8.05;;
37971;SDS011;23794;48.234;8.344;2023-06-22T04:07:05;9.63;;;7.13;;
37971;SDS011;23794;48.234;8.344;2023-06-22T04:09:32;10.10;;;7.43;;
37971;SDS011;23794;48.234;8.344;2023-06-22T04:11:59;11.02;;;8.52;;
37971;SDS011;23794;48.234;8.344;2023-06-22T04:14:25;11.35;;;9.27;;
37971;SDS011;23794;48.234;8.344;2023-06-22T04:16:52;13.45;;;9.05;;
37971;SDS011;23794;48.234;8.344;2023-06-22T04:19:18;12.80;;;9.30;;
37971;SDS011;23794;48.234;8.344;2023-06-22T04:21:45;13.02;;;7.70;;
37971;SDS011;23794;48.234;8.344;2023-06-22T04:24:15;11.32;;;8.65;;
37971;SDS011;23794;48.234;8.344;2023-06-22T04:26:41;8.30;;;7.00;;
37971;SDS011;23794;48.234;8.344;2023-06-22T04:29:08;10.32;;;8.93;;
37971;SDS011;23794;48.234;8.344;2023-06-22T04:31:35;13.48;;;8.63;;
37971;SDS011;23794;48.234;8.344;2023-06-22T04:34:05;11.55;;;8.75;;
37971;SDS011;23794;48.234;8.344;2023-06-22T04:36:37;14.23;;;9.35;;
37971;SDS011;23794;48.234;8.344;2023-06-22T04:39:05;9.88;;;8.30;;
37971;SDS011;23794;48.234;8.344;2023-06-22T04:41:39;11.23;;;8.25;;
37971;SDS011;23794;48.234;8.344;2023-06-22T04:44:10;9.80;;;8.80;;
37971;SDS011;23794;48.234;8.344;2023-06-22T04:46:53;10.93;;;9.63;;
37971;SDS011;23794;48.234;8.344;2023-06-22T04:49:27;10.60;;;8.60;;
37971;SDS011;23794;48.234;8.344;2023-06-22T04:51:59;9.43;;;8.35;;
37971;SDS011;23794;48.234;8.344;2023-06-22T04:54:27;11.43;;;8.80;;
37971;SDS011;23794;48.234;8.344;2023-06-22T04:56:53;15.30;;;10.27;;
37971;SDS011;23794;48.234;8.344;2023-06-22T04:59:23;13.98;;;10.73;;
37971;SDS011;23794;48.234;8.344;2023-06-22T05:01:54;14.68;;;10.85;;
37971;SDS011;23794;48.234;8.344;2023-06-22T05:04:25;11.73;;;8.77;;
37971;SDS011;23794;48.234;8.344;2023-06-22T05:06:55;9.95;;;8.45;;
37971;SDS011;23794;48.234;8.344;2023-06-22T05:09:22;11.57;;;8.65;;
37971;SDS011;23794;48.234;8.344;2023-06-22T05:11:49;14.43;;;9.70;;
37971;SDS011;23794;48.234;8.344;2023-06-22T05:14:16;13.70;;;9.93;;
37971;SDS011;23794;48.234;8.344;2023-06-22T05:16:44;13.68;;;10.35;;
37971;SDS011;23794;48.234;8.344;2023-06-22T05:19:11;12.35;;;9.50;;
37971;SDS011;23794;48.234;8.344;2023-06-22T05:21:38;12.75;;;9.52;;
37971;SDS011;23794;48.234;8.344;2023-06-22T05:24:05;12.25;;;9.02;;
37971;SDS011;23794;48.234;8.344;2023-06-22T05:26:32;11.57;;;9.52;;
37971;SDS011;23794;48.234;8.344;2023-06-22T05:29:00;12.93;;;9.73;;
37971;SDS011;23794;48.234;8.344;2023-06-22T05:31:28;12.77;;;9.25;;
37971;SDS011;23794;48.234;8.344;2023-06-22T05:33:55;11.38;;;10.05;;
37971;SDS011;23794;48.234;8.344;2023-06-22T05:36:22;12.98;;;9.80;;
37971;SDS011;23794;48.234;8.344;2023-06-22T05:38:52;14.43;;;10.50;;
37971;SDS011;23794;48.234;8.344;2023-06-22T05:41:19;12.25;;;10.02;;
37971;SDS011;23794;48.234;8.344;2023-06-22T05:43:46;13.35;;;8.40;;
37971;SDS011;23794;48.234;8.344;2023-06-22T05:46:12;12.35;;;10.48;;
37971;SDS011;23794;48.234;8.344;2023-06-22T05:48:39;12.82;;;9.77;;
37971;SDS011;23794;48.234;8.344;2023-06-22T05:51:06;12.55;;;9.98;;
37971;SDS011;23794;48.234;8.344;2023-06-22T05:53:33;14.40;;;9.20;;
37971;SDS011;23794;48.234;8.344;2023-06-22T05:56:00;11.82;;;9.35;;
37971;SDS011;23794;48.234;8.344;2023-06-22T05:58:26;12.38;;;9.55;;
37971;SDS011;23794;48.234;8.344;2023-06-22T06:00:53;12.48;;;9.88;;
37971;SDS011;23794;48.234;8.344;2023-06-22T06:03:20;10.45;;;9.25;;
37971;SDS011;23794;48.234;8.344;2023-06-22T06:05:46;15.55;;;10.18;;
37971;SDS011;23794;48.234;8.344;2023-06-22T06:08:13;12.43;;;9.85;;
37971;SDS011;23794;48.234;8.344;2023-06-22T06:10:40;11.82;;;8.88;;
37971;SDS011;23794;48.234;8.344;2023-06-22T06:13:07;14.85;;;9.20;;
37971;SDS011;23794;48.234;8.344;2023-06-22T06:15:34;13.82;;;8.40;;
37971;SDS011;23794;48.234;8.344;2023-06-22T06:18:01;10.50;;;9.02;;
37971;SDS011;23794;48.234;8.344;2023-06-22T06:20:30;12.10;;;7.75;;
37971;SDS011;23794;48.234;8.344;2023-06-22T06:22:58;10.98;;;8.27;;
37971;SDS011;23794;48.234;8.344;2023-06-22T06:25:25;12.15;;;8.25;;
37971;SDS011;23794;48.234;8.344;2023-06-22T06:27:52;11.93;;;9.40;;
37971;SDS011;23794;48.234;8.344;2023-06-22T06:30:21;11.00;;;7.82;;
37971;SDS011;23794;48.234;8.344;2023-06-22T06:32:49;11.63;;;8.23;;
37971;SDS011;23794;48.234;8.344;2023-06-22T06:35:16;14.05;;;8.80;;
37971;SDS011;23794;48.234;8.344;2023-06-22T06:37:44;12.63;;;7.40;;
37971;SDS011;23794;48.234;8.344;2023-06-22T06:40:12;11.32;;;8.07;;
37971;SDS011;23794;48.234;8.344;2023-06-22T06:42:42;10.52;;;8.50;;
37971;SDS011;23794;48.234;8.344;2023-06-22T06:45:12;10.63;;;7.83;;
37971;SDS011;23794;48.234;8.344;2023-06-22T06:47:39;14.98;;;8.30;;
37971;SDS011;23794;48.234;8.344;2023-06-22T06:50:06;12.32;;;7.80;;
37971;SDS011;23794;48.234;8.344;2023-06-22T06:52:34;9.80;;;7.00;;
37971;SDS011;23794;48.234;8.344;2023-06-22T06:55:04;8.70;;;6.67;;
37971;SDS011;23794;48.234;8.344;2023-06-22T06:57:34;12.07;;;8.48;;
37971;SDS011;23794;48.234;8.344;2023-06-22T07:00:01;11.05;;;7.28;;
37971;SDS011;23794;48.234;8.344;2023-06-22T07:02:28;9.90;;;6.85;;
37971;SDS011;23794;48.234;8.344;2023-06-22T07:04:55;12.15;;;7.78;;
37971;SDS011;23794;48.234;8.344;2023-06-22T07:07:21;14.23;;;7.38;;
37971;SDS011;23794;48.234;8.344;2023-06-22T07:09:48;9.43;;;7.18;;
37971;SDS011;23794;48.234;8.344;2023-06-22T07:12:15;8.23;;;6.30;;
37971;SDS011;23794;48.234;8.344;2023-06-22T07:14:42;11.15;;;6.72;;
37971;SDS011;23794;48.234;8.344;2023-06-22T07:17:08;12.25;;;6.47;;
37971;SDS011;23794;48.234;8.344;2023-06-22T07:19:36;9.35;;;6.28;;
37971;SDS011;23794;48.234;8.344;2023-06-22T07:22:03;11.25;;;7.72;;
37971;SDS011;23794;48.234;8.344;2023-06-22T07:24:29;10.48;;;6.47;;
37971;SDS011;23794;48.234;8.344;2023-06-22T07:26:56;12.60;;;7.32;;
37971;SDS011;23794;48.234;8.344;2023-06-22T07:29:25;8.70;;;6.45;;
37971;SDS011;23794;48.234;8.344;2023-06-22T07:31:53;9.68;;;7.38;;
37971;SDS011;23794;48.234;8.344;2023-06-22T07:34:19;10.95;;;6.95;;
37971;SDS011;23794;48.234;8.344;2023-06-22T07:36:46;12.65;;;7.20;;
37971;SDS011;23794;48.234;8.344;2023-06-22T07:39:13;11.18;;;5.88;;
37971;SDS011;23794;48.234;8.344;2023-06-22T07:41:40;8.73;;;6.65;;
37971;SDS011;23794;48.234;8.344;2023-06-22T07:44:07;8.52;;;6.15;;
37971;SDS011;23794;48.234;8.344;2023-06-22T07:46:34;12.98;;;6.85;;
37971;SDS011;23794;48.234;8.344;2023-06-22T07:49:01;13.27;;;6.45;;
37971;SDS011;23794;48.234;8.344;2023-06-22T07:51:28;10.68;;;7.20;;
37971;SDS011;23794;48.234;8.344;2023-06-22T07:53:55;6.90;;;5.85;;
37971;SDS011;23794;48.234;8.344;2023-06-22T07:56:21;9.02;;;5.90;;
37971;SDS011;23794;48.234;8.344;2023-06-22T07:58:48;11.85;;;5.82;;
37971;SDS011;23794;48.234;8.344;2023-06-22T08:01:14;9.43;;;5.60;;
37971;SDS011;23794;48.234;8.344;2023-06-22T08:03:41;9.55;;;5.88;;
37971;SDS011;23794;48.234;8.344;2023-06-22T08:06:08;9.82;;;6.40;;
37971;SDS011;23794;48.234;8.344;2023-06-22T08:08:36;8.07;;;6.32;;
37971;SDS011;23794;48.234;8.344;2023-06-22T08:11:03;10.02;;;6.07;;
37971;SDS011;23794;48.234;8.344;2023-06-22T08:13:29;11.10;;;6.00;;
37971;SDS011;23794;48.234;8.344;2023-06-22T08:15:56;10.05;;;6.28;;
37971;SDS011;23794;48.234;8.344;2023-06-22T08:18:23;8.15;;;5.53;;
37971;SDS011;23794;48.234;8.344;2023-06-22T08:20:49;8.48;;;6.18;;
37971;SDS011;23794;48.234;8.344;2023-06-22T08:23:16;10.95;;;5.93;;
37971;SDS011;23794;48.234;8.344;2023-06-22T08:25:43;10.82;;;6.00;;
37971;SDS011;23794;48.234;8.344;2023-06-22T08:28:09;10.45;;;5.85;;
37971;SDS011;23794;48.234;8.344;2023-06-22T08:30:36;10.45;;;5.88;;
37971;SDS011;23794;48.234;8.344;2023-06-22T08:33:03;12.38;;;6.00;;
37971;SDS011;23794;48.234;8.344;2023-06-22T08:35:29;12.50;;;6.05;;
37971;SDS011;23794;48.234;8.344;2023-06-22T08:37:56;7.68;;;5.63;;
37971;SDS011;23794;48.234;8.344;2023-06-22T08:40:24;10.65;;;5.50;;
37971;SDS011;23794;48.234;8.344;2023-06-22T08:42:51;12.02;;;5.13;;
37971;SDS011;23794;48.234;8.344;2023-06-22T08:45:18;9.88;;;6.05;;
37971;SDS011;23794;48.234;8.344;2023-06-22T08:47:44;9.68;;;5.90;;
37971;SDS011;23794;48.234;8.344;2023-06-22T08:50:13;11.57;;;5.93;;
37971;SDS011;23794;48.234;8.344;2023-06-22T08:52:40;9.85;;;5.75;;
37971;SDS011;23794;48.234;8.344;2023-06-22T08:55:09;7.70;;;5.40;;
37971;SDS011;23794;48.234;8.344;2023-06-22T08:57:36;8.20;;;5.28;;
37971;SDS011;23794;48.234;8.344;2023-06-22T09:00:08;10.07;;;6.15;;
37971;SDS011;23794;48.234;8.344;2023-06-22T09:02:46;12.10;;;5.95;;
37971;SDS011;23794;48.234;8.344;2023-06-22T09:05:14;10.73;;;5.65;;
37971;SDS011;23794;48.234;8.344;2023-06-22T09:07:42;8.93;;;6.18;;
37971;SDS011;23794;48.234;8.344;2023-06-22T09:10:12;10.70;;;6.53;;
37971;SDS011;23794;48.234;8.344;2023-06-22T09:12:39;8.43;;;5.30;;
37971;SDS011;23794;48.234;8.344;2023-06-22T09:15:05;9.25;;;5.93;;
37971;SDS011;23794;48.234;8.344;2023-06-22T09:17:40;10.48;;;5.70;;
37971;SDS011;23794;48.234;8.344;2023-06-22T09:20:07;8.82;;;5.18;;
37971;SDS011;23794;48.234;8.344;2023-06-22T09:22:37;7.43;;;4.95;;
37971;SDS011;23794;48.234;8.344;2023-06-22T09:25:04;8.77;;;5.95;;
37971;SDS011;23794;48.234;8.344;2023-06-22T09:27:33;10.90;;;5.55;;
37971;SDS011;23794;48.234;8.344;2023-06-22T09:29:59;8.07;;;5.22;;
37971;SDS011;23794;48.234;8.344;2023-06-22T09:32:26;8.48;;;5.38;;
37971;SDS011;23794;48.234;8.344;2023-06-22T09:34:53;12.07;;;5.45;;
37971;SDS011;23794;48.234;8.344;2023-06-22T09:37:20;8.52;;;5.32;;
37971;SDS011;23794;48.234;8.344;2023-06-22T09:39:46;17.70;;;6.20;;
37971;SDS011;23794;48.234;8.344;2023-06-22T09:42:13;9.98;;;5.15;;
37971;SDS011;23794;48.234;8.344;2023-06-22T09:44:39;11.93;;;5.20;;
37971;SDS011;23794;48.234;8.344;2023-06-22T09:47:06;11.90;;;5.65;;
37971;SDS011;23794;48.234;8.344;2023-06-22T09:49:33;11.02;;;6.00;;
37971;SDS011;23794;48.234;8.344;2023-06-22T09:52:13;8.13;;;5.20;;
37971;SDS011;23794;48.234;8.344;2023-06-22T09:54:40;8.88;;;5.80;;
37971;SDS011;23794;48.234;8.344;2023-06-22T09:57:06;9.48;;;5.57;;
37971;SDS011;23794;48.234;8.344;2023-06-22T09:59:33;8.70;;;5.43;;
37971;SDS011;23794;48.234;8.344;2023-06-22T10:02:00;9.00;;;5.05;;
37971;SDS011;23794;48.234;8.344;2023-06-22T10:04:26;11.13;;;5.00;;
37971;SDS011;23794;48.234;8.344;2023-06-22T10:06:54;8.93;;;5.15;;
37971;SDS011;23794;48.234;8.344;2023-06-22T10:09:20;10.32;;;5.25;;
37971;SDS011;23794;48.234;8.344;2023-06-22T10:11:47;14.40;;;6.13;;
37971;SDS011;23794;48.234;8.344;2023-06-22T10:14:14;9.50;;;6.05;;
37971;SDS011;23794;48.234;8.344;2023-06-22T10:16:41;9.23;;;6.20;;
37971;SDS011;23794;48.234;8.344;2023-06-22T10:19:08;9.15;;;5.57;;
37971;SDS011;23794;48.234;8.344;2023-06-22T10:21:34;11.05;;;6.20;;
37971;SDS011;23794;48.234;8.344;2023-06-22T10:24:01;10.48;;;6.18;;
37971;SDS011;23794;48.234;8.344;2023-06-22T10:26:35;9.10;;;5.22;;
37971;SDS011;23794;48.234;8.344;2023-06-22T10:29:02;9.75;;;5.30;;
37971;SDS011;23794;48.234;8.344;2023-06-22T10:31:32;8.50;;;5.28;;
37971;SDS011;23794;48.234;8.344;2023-06-22T10:33:59;9.88;;;5.20;;
37971;SDS011;23794;48.234;8.344;2023-06-22T10:36:26;10.77;;;5.68;;
37971;SDS011;23794;48.234;8.344;2023-06-22T10:38:52;10.13;;;5.07;;
37971;SDS011;23794;48.234;8.344;2023-06-22T10:41:19;12.18;;;5.53;;
37971;SDS011;23794;48.234;8.344;2023-06-22T10:43:46;8.32;;;5.82;;
37971;SDS011;23794;48.234;8.344;2023-06-22T10:46:12;7.75;;;5.20;;
37971;SDS011;23794;48.234;8.344;2023-06-22T10:48:39;9.40;;;5.60;;
37971;SDS011;23794;48.234;8.344;2023-06-22T10:51:06;6.80;;;5.05;;
37971;SDS011;23794;48.234;8.344;2023-06-22T10:53:32;10.27;;;5.50;;
37971;SDS011;23794;48.234;8.344;2023-06-22T10:55:59;8.65;;;5.35;;
37971;SDS011;23794;48.234;8.344;2023-06-22T10:58:26;12.15;;;6.07;;
37971;SDS011;23794;48.234;8.344;2023-06-22T11:00:52;9.02;;;5.47;;
37971;SDS011;23794;48.234;8.344;2023-06-22T11:03:19;10.60;;;6.13;;
37971;SDS011;23794;48.234;8.344;2023-06-22T11:05:47;11.20;;;5.18;;
37971;SDS011;23794;48.234;8.344;2023-06-22T11:08:14;11.38;;;5.38;;
37971;SDS011;23794;48.234;8.344;2023-06-22T11:10:41;10.40;;;4.93;;
37971;SDS011;23794;48.234;8.344;2023-06-22T11:13:08;10.45;;;5.53;;
37971;SDS011;23794;48.234;8.344;2023-06-22T11:15:38;10.45;;;5.32;;
37971;SDS011;23794;48.234;8.344;2023-06-22T11:18:05;9.23;;;5.32;;
37971;SDS011;23794;48.234;8.344;2023-06-22T11:20:33;13.25;;;5.63;;
37971;SDS011;23794;48.234;8.344;2023-06-22T11:23:05;11.60;;;5.45;;
37971;SDS011;23794;48.234;8.344;2023-06-22T11:25:35;10.75;;;6.18;;
37971;SDS011;23794;48.234;8.344;2023-06-22T11:28:02;8.38;;;5.03;;
37971;SDS011;23794;48.234;8.344;2023-06-22T11:30:29;10.13;;;4.80;;
37971;SDS011;23794;48.234;8.344;2023-06-22T11:32:58;8.00;;;5.38;;
37971;SDS011;23794;48.234;8.344;2023-06-22T11:35:25;10.05;;;5.13;;
37971;SDS011;23794;48.234;8.344;2023-06-22T11:37:52;11.98;;;5.63;;
37971;SDS011;23794;48.234;8.344;2023-06-22T11:40:19;9.70;;;5.40;;
37971;SDS011;23794;48.234;8.344;2023-06-22T11:42:45;12.32;;;5.43;;
37971;SDS011;23794;48.234;8.344;2023-06-22T11:45:12;11.63;;;5.88;;
37971;SDS011;23794;48.234;8.344;2023-06-22T11:47:39;9.48;;;4.90;;
37971;SDS011;23794;48.234;8.344;2023-06-22T11:50:06;9.70;;;4.38;;
37971;SDS011;23794;48.234;8.344;2023-06-22T11:52:33;11.13;;;4.43;;
37971;SDS011;23794;48.234;8.344;2023-06-22T11:55:04;10.57;;;4.43;;
37971;SDS011;23794;48.234;8.344;2023-06-22T11:58:07;9.95;;;4.05;;
37971;SDS011;23794;48.234;8.344;2023-06-22T12:01:50;7.75;;;3.60;;
37971;SDS011;23794;48.234;8.344;2023-06-22T12:04:53;10.57;;;4.50;;
37971;SDS011;23794;48.234;8.344;2023-06-22T12:07:24;7.47;;;3.53;;
37971;SDS011;23794;48.234;8.344;2023-06-22T12:09:50;14.27;;;4.47;;
37971;SDS011;23794;48.234;8.344;2023-06-22T12:12:17;9.20;;;3.92;;
37971;SDS011;23794;48.234;8.344;2023-06-22T12:14:44;8.27;;;3.70;;
37971;SDS011;23794;48.234;8.344;2023-06-22T12:17:10;7.57;;;3.85;;
37971;SDS011;23794;48.234;8.344;2023-06-22T12:19:38;15.48;;;4.35;;
37971;SDS011;23794;48.234;8.344;2023-06-22T12:22:04;9.90;;;3.88;;
37971;SDS011;23794;48.234;8.344;2023-06-22T12:24:31;9.77;;;4.00;;
37971;SDS011;23794;48.234;8.344;2023-06-22T12:26:58;7.90;;;3.75;;
37971;SDS011;23794;48.234;8.344;2023-06-22T12:29:24;7.63;;;3.05;;
37971;SDS011;23794;48.234;8.344;2023-06-22T12:31:51;11.27;;;3.13;;
37971;SDS011;23794;48.234;8.344;2023-06-22T12:34:18;12.23;;;3.40;;
37971;SDS011;23794;48.234;8.344;2023-06-22T12:36:45;10.23;;;3.85;;
37971;SDS011;23794;48.234;8.344;2023-06-22T12:39:14;10.30;;;3.80;;
37971;SDS011;23794;48.234;8.344;2023-06-22T12:41:40;7.68;;;3.78;;
37971;SDS011;23794;48.234;8.344;2023-06-22T12:44:11;10.90;;;3.58;;
37971;SDS011;23794;48.234;8.344;2023-06-22T12:46:37;9.32;;;2.88;;
37971;SDS011;23794;48.234;8.344;2023-06-22T12:49:04;10.65;;;3.10;;
37971;SDS011;23794;48.234;8.344;2023-06-22T12:51:31;10.18;;;3.53;;
37971;SDS011;23794;48.234;8.344;2023-06-22T12:53:58;11.07;;;3.83;;
37971;SDS011;23794;48.234;8.344;2023-06-22T12:56:24;11.77;;;3.75;;
37971;SDS011;23794;48.234;8.344;2023-06-22T12:58:51;10.20;;;3.35;;
37971;SDS011;23794;48.234;8.344;2023-06-22T13:01:17;9.00;;;3.47;;
37971;SDS011;23794;48.234;8.344;2023-06-22T13:03:44;9.60;;;3.08;;
37971;SDS011;23794;48.234;8.344;2023-06-22T13:06:11;12.23;;;3.25;;
37971;SDS011;23794;48.234;8.344;2023-06-22T13:08:38;9.30;;;3.30;;
37971;SDS011;23794;48.234;8.344;2023-06-22T13:11:07;12.52;;;3.45;;
37971;SDS011;23794;48.234;8.344;2023-06-22T13:13:34;9.65;;;3.05;;
37971;SDS011;23794;48.234;8.344;2023-06-22T13:16:00;9.63;;;2.75;;
37971;SDS011;23794;48.234;8.344;2023-06-22T13:18:27;10.27;;;3.40;;
37971;SDS011;23794;48.234;8.344;2023-06-22T13:20:54;10.18;;;3.20;;
37971;SDS011;23794;48.234;8.344;2023-06-22T13:23:21;12.18;;;2.88;;
37971;SDS011;23794;48.234;8.344;2023-06-22T13:25:47;11.68;;;3.65;;
37971;SDS011;23794;48.234;8.344;2023-06-22T13:28:14;11.98;;;3.90;;
37971;SDS011;23794;48.234;8.344;2023-06-22T13:30:53;10.07;;;3.78;;
37971;SDS011;23794;48.234;8.344;2023-06-22T13:33:20;11.40;;;4.20;;
37971;SDS011;23794;48.234;8.344;2023-06-22T13:35:47;11.45;;;3.83;;
37971;SDS011;23794;48.234;8.344;2023-06-22T13:38:13;10.95;;;4.05;;
37971;SDS011;23794;48.234;8.344;2023-06-22T13:40:40;7.93;;;4.00;;
37971;SDS011;23794;48.234;8.344;2023-06-22T13:43:06;12.35;;;3.92;;
37971;SDS011;23794;48.234;8.344;2023-06-22T13:45:33;13.77;;;4.53;;
37971;SDS011;23794;48.234;8.344;2023-06-22T13:48:00;11.85;;;4.85;;
37971;SDS011;23794;48.234;8.344;2023-06-22T13:50:27;14.23;;;4.40;;
37971;SDS011;23794;48.234;8.344;2023-06-22T13:52:56;11.13;;;4.07;;
37971;SDS011;23794;48.234;8.344;2023-06-22T13:55:22;18.58;;;6.53;;
37971;SDS011;23794;48.234;8.344;2023-06-22T13:57:49;13.65;;;5.00;;
37971;SDS011;23794;48.234;8.344;2023-06-22T14:00:17;12.40;;;4.75;;
37971;SDS011;23794;48.234;8.344;2023-06-22T14:02:44;15.05;;;6.13;;
37971;SDS011;23794;48.234;8.344;2023-06-22T14:05:11;13.70;;;4.80;;
37971;SDS011;23794;48.234;8.344;2023-06-22T14:07:38;16.90;;;5.00;;
37971;SDS011;23794;48.234;8.344;2023-06-22T14:10:05;13.10;;;5.07;;
37971;SDS011;23794;48.234;8.344;2023-06-22T14:12:32;13.23;;;5.30;;
37971;SDS011;23794;48.234;8.344;2023-06-22T14:14:58;13.90;;;3.63;;
37971;SDS011;23794;48.234;8.344;2023-06-22T14:17:26;10.07;;;3.70;;
37971;SDS011;23794;48.234;8.344;2023-06-22T14:19:52;7.30;;;3.90;;
37971;SDS011;23794;48.234;8.344;2023-06-22T14:22:19;10.77;;;4.78;;
37971;SDS011;23794;48.234;8.344;2023-06-22T14:24:47;10.20;;;3.85;;
37971;SDS011;23794;48.234;8.344;2023-06-22T14:27:14;7.15;;;3.15;;
37971;SDS011;23794;48.234;8.344;2023-06-22T14:29:41;26.88;;;6.22;;
37971;SDS011;23794;48.234;8.344;2023-06-22T14:32:08;20.13;;;4.72;;
37971;SDS011;23794;48.234;8.344;2023-06-22T14:34:35;8.05;;;4.20;;
37971;SDS011;23794;48.234;8.344;2023-06-22T14:37:02;10.50;;;3.95;;
37971;SDS011;23794;48.234;8.344;2023-06-22T14:39:29;9.82;;;3.90;;
37971;SDS011;23794;48.234;8.344;2023-06-22T14:41:55;23.77;;;4.97;;
37971;SDS011;23794;48.234;8.344;2023-06-22T14:44:22;8.73;;;3.72;;
37971;SDS011;23794;48.234;8.344;2023-06-22T14:46:49;8.98;;;3.67;;
37971;SDS011;23794;48.234;8.344;2023-06-22T14:49:15;26.90;;;5.53;;
37971;SDS011;23794;48.234;8.344;2023-06-22T14:51:42;9.68;;;3.90;;